Flight Track Log - Related Links

Times and Time Zones

All times are in EDT time to prevent confusion due to time zone crossing. See the N911PS flight status page for this flight to view local times or setup timezone preferences in your user account.

Time Position Orientation Groundspeed Altitude Reporting Facility
EDT Latitude Longitude Course Direction KTS MPH feet Rate Location/Type
Wed 02:54:00 PM 39.9914 -77.7200 276° West 111 128 5,400  Level Cleveland Center
Wed 02:55:02 PM 39.9936 -77.7522 275° West 99 114 5,900 339 Climbing Cleveland Center
Wed 02:56:04 PM 39.9956 -77.7875 274° West 98 113 6,100 97 Climbing Cleveland Center
Wed 02:57:00 PM 39.9833 -77.8465 270° West  Level FlightAware Approximate
Wed 02:57:06 PM 39.9978 -77.8356 273° West 101 116 6,100  Level Cleveland Center
Wed 02:58:00 PM 39.9833 -77.8894 270° West  Level FlightAware Approximate
Wed 02:58:09 PM 39.9975 -77.8750 269° West 111 128 6,100  Level Cleveland Center
Wed 02:59:00 PM 39.9868 -77.9307 276° West  Level FlightAware Approximate
Wed 02:59:11 PM 39.9936 -77.9247 264° West 117 135 6,100  Level Cleveland Center
Wed 03:00:13 PM 39.9878 -77.9653 259° West 117 135 6,100  Level Cleveland Center
Wed 03:01:10 PM 39.9817 -78.0092 260° West 114 131 6,100  Level Cleveland Center
Wed 03:02:17 PM 39.9769 -78.0469 261° West 117 135 6,100  Level Cleveland Center
Wed 03:03:18 PM 39.9689 -78.0947 258° West 113 130 6,100  Level Cleveland Center
Wed 03:04:18 PM 39.9703 -78.1331 273° West 108 124 6,100  Level Cleveland Center
Wed 03:05:19 PM 39.9711 -78.1767 271° West 114 131 6,100  Level Cleveland Center
Wed 03:06:20 PM 39.9739 -78.2233 274° West 123 142 6,100  Level Cleveland Center
Wed 03:07:20 PM 39.9772 -78.2644 276° West 122 140 6,100  Level Cleveland Center
Wed 03:08:15 PM 39.9803 -78.3058 276° West 119 137 6,100  Level Cleveland Center
Wed 03:08:30 PM 39.9817 -78.3144 282° West 118 136 6,100  Level Cleveland Center
Wed 03:09:15 PM 39.9831 -78.3497 273° West 123 142 6,100  Level Cleveland Center
Wed 03:09:32 PM 39.9850 -78.3586 286° West 119 137 6,100  Level Cleveland Center
Wed 03:10:16 PM 39.9881 -78.3939 276° West 125 144 6,100  Level Cleveland Center
Wed 03:10:35 PM 39.9894 -78.4044 280° West 123 142 6,100  Level Cleveland Center
Wed 03:11:17 PM 39.9931 -78.4408 277° West 124 143 6,100  Level Cleveland Center
Wed 03:11:37 PM 39.9944 -78.4481 284° West 124 143 6,100  Level Cleveland Center
Wed 03:12:17 PM 39.9958 -78.4850 273° West 123 142 6,100  Level Cleveland Center
Wed 03:12:39 PM 39.9989 -78.4919 300° West 124 143 6,100  Level Cleveland Center
Wed 03:13:18 PM 40.0008 -78.5292 274° West 124 143 6,100  Level Cleveland Center
Wed 03:13:41 PM 40.0044 -78.5461 286° West 123 142 6,100  Level Cleveland Center
Wed 03:14:18 PM 40.0078 -78.5736 279° West 127 146 6,100  Level Cleveland Center
Wed 03:14:43 PM 40.0111 -78.5906 284° West 124 143 6,100  Level Cleveland Center
Wed 03:15:19 PM 40.0125 -78.6181 274° West 129 148 6,100  Level Cleveland Center
Wed 03:15:45 PM 40.0131 -78.6361 272° West 125 144 6,100  Level Cleveland Center
Wed 03:16:20 PM 40.0131 -78.6669 270° West 126 145 6,100  Level Cleveland Center
Wed 03:16:47 PM 40.0136 -78.6817 273° West 125 144 6,100 -404 Level Cleveland Center
Wed 03:17:49 PM 40.0186 -78.7219 279° West 119 137 5,500 -726 Descending Cleveland Center
Wed 03:18:51 PM 40.0250 -78.7753 279° West 119 137 4,600 -435 Descending Cleveland Center
Wed 03:19:53 PM 40.0281 -78.8147 276° West 114 131 4,600 -290 Level Cleveland Center
Wed 03:20:55 PM 40.0422 -78.8597 292° West 130 150 4,000 -581 Descending Cleveland Center
Wed 03:21:57 PM 40.0508 -78.9131 282° West 141 162 3,400 -339 Descending Cleveland Center
Wed 03:22:59 PM 40.0592 -78.9611 283° West 143 165 3,300 -97 Descending Cleveland Center
Wed 03:24:00 PM 40.0379 -78.9931 229° Southwest  Level FlightAware Approximate

Login

Don't have an account? Register now (free) for customized features, flight alerts, and more!